sensor_id;sensor_type;location;lat;lon;timestamp;P1;durP1;ratioP1;P2;durP2;ratioP2
22632;SDS011;11483;55.828;37.488;2023-02-01T00:02:00;28.63;;;10.43;;
22632;SDS011;11483;55.828;37.488;2023-02-01T00:04:26;28.70;;;10.73;;
22632;SDS011;11483;55.828;37.488;2023-02-01T00:06:52;30.97;;;10.87;;
22632;SDS011;11483;55.828;37.488;2023-02-01T00:09:18;33.27;;;10.70;;
22632;SDS011;11483;55.828;37.488;2023-02-01T00:11:44;27.87;;;10.90;;
22632;SDS011;11483;55.828;37.488;2023-02-01T00:14:10;27.17;;;10.30;;
22632;SDS011;11483;55.828;37.488;2023-02-01T00:16:36;33.87;;;10.60;;
22632;SDS011;11483;55.828;37.488;2023-02-01T00:19:20;26.97;;;10.47;;
22632;SDS011;11483;55.828;37.488;2023-02-01T00:21:46;24.90;;;10.07;;
22632;SDS011;11483;55.828;37.488;2023-02-01T00:24:12;26.87;;;10.43;;
22632;SDS011;11483;55.828;37.488;2023-02-01T00:26:39;26.63;;;10.67;;
22632;SDS011;11483;55.828;37.488;2023-02-01T00:29:12;31.47;;;11.10;;
22632;SDS011;11483;55.828;37.488;2023-02-01T00:31:40;27.67;;;8.83;;
22632;SDS011;11483;55.828;37.488;2023-02-01T00:34:06;28.17;;;9.27;;
22632;SDS011;11483;55.828;37.488;2023-02-01T00:36:33;28.33;;;11.40;;
22632;SDS011;11483;55.828;37.488;2023-02-01T00:38:59;24.13;;;9.00;;
22632;SDS011;11483;55.828;37.488;2023-02-01T00:41:25;24.27;;;9.20;;
22632;SDS011;11483;55.828;37.488;2023-02-01T00:43:51;27.13;;;10.80;;
22632;SDS011;11483;55.828;37.488;2023-02-01T00:46:18;25.70;;;9.13;;
22632;SDS011;11483;55.828;37.488;2023-02-01T00:48:44;25.53;;;10.13;;
22632;SDS011;11483;55.828;37.488;2023-02-01T00:51:12;22.93;;;8.83;;
22632;SDS011;11483;55.828;37.488;2023-02-01T00:53:42;22.60;;;10.10;;
22632;SDS011;11483;55.828;37.488;2023-02-01T00:56:08;23.23;;;7.83;;
22632;SDS011;11483;55.828;37.488;2023-02-01T00:58:35;21.20;;;8.73;;
22632;SDS011;11483;55.828;37.488;2023-02-01T01:01:14;17.13;;;7.77;;
22632;SDS011;11483;55.828;37.488;2023-02-01T01:03:59;24.10;;;9.20;;
22632;SDS011;11483;55.828;37.488;2023-02-01T01:06:26;23.57;;;9.70;;
22632;SDS011;11483;55.828;37.488;2023-02-01T01:08:55;22.23;;;8.53;;
22632;SDS011;11483;55.828;37.488;2023-02-01T01:11:24;18.93;;;8.23;;
22632;SDS011;11483;55.828;37.488;2023-02-01T01:13:52;24.33;;;10.17;;
22632;SDS011;11483;55.828;37.488;2023-02-01T01:16:19;21.27;;;7.80;;
22632;SDS011;11483;55.828;37.488;2023-02-01T01:18:46;25.43;;;9.23;;
22632;SDS011;11483;55.828;37.488;2023-02-01T01:21:13;22.00;;;8.30;;
22632;SDS011;11483;55.828;37.488;2023-02-01T01:23:40;19.90;;;8.73;;
22632;SDS011;11483;55.828;37.488;2023-02-01T01:26:07;19.97;;;8.87;;
22632;SDS011;11483;55.828;37.488;2023-02-01T01:28:39;20.10;;;8.00;;
22632;SDS011;11483;55.828;37.488;2023-02-01T01:31:09;22.67;;;9.00;;
22632;SDS011;11483;55.828;37.488;2023-02-01T01:33:36;17.93;;;7.37;;
22632;SDS011;11483;55.828;37.488;2023-02-01T01:36:04;20.20;;;8.17;;
22632;SDS011;11483;55.828;37.488;2023-02-01T01:38:40;21.20;;;7.67;;
22632;SDS011;11483;55.828;37.488;2023-02-01T01:41:08;22.00;;;8.70;;
22632;SDS011;11483;55.828;37.488;2023-02-01T01:46:25;20.10;;;8.53;;
22632;SDS011;11483;55.828;37.488;2023-02-01T01:51:49;17.27;;;6.97;;
22632;SDS011;11483;55.828;37.488;2023-02-01T01:56:49;20.57;;;8.63;;
22632;SDS011;11483;55.828;37.488;2023-02-01T01:59:17;24.93;;;8.57;;
22632;SDS011;11483;55.828;37.488;2023-02-01T02:01:44;18.73;;;8.10;;
22632;SDS011;11483;55.828;37.488;2023-02-01T02:04:11;15.40;;;6.80;;
22632;SDS011;11483;55.828;37.488;2023-02-01T02:06:39;19.83;;;8.23;;
22632;SDS011;11483;55.828;37.488;2023-02-01T02:09:06;23.17;;;9.17;;
22632;SDS011;11483;55.828;37.488;2023-02-01T02:11:32;18.77;;;7.63;;
22632;SDS011;11483;55.828;37.488;2023-02-01T02:13:58;24.23;;;9.53;;
22632;SDS011;11483;55.828;37.488;2023-02-01T02:16:28;23.33;;;8.77;;
22632;SDS011;11483;55.828;37.488;2023-02-01T02:25:38;18.03;;;8.20;;
22632;SDS011;11483;55.828;37.488;2023-02-01T02:31:26;19.20;;;8.40;;
22632;SDS011;11483;55.828;37.488;2023-02-01T02:43:10;22.13;;;8.83;;
22632;SDS011;11483;55.828;37.488;2023-02-01T02:46:21;19.43;;;7.97;;
22632;SDS011;11483;55.828;37.488;2023-02-01T02:49:11;23.97;;;9.97;;
22632;SDS011;11483;55.828;37.488;2023-02-01T02:51:52;23.83;;;8.87;;
22632;SDS011;11483;55.828;37.488;2023-02-01T02:54:43;21.23;;;8.83;;
22632;SDS011;11483;55.828;37.488;2023-02-01T02:57:18;24.87;;;8.63;;
22632;SDS011;11483;55.828;37.488;2023-02-01T03:00:09;18.40;;;8.47;;
22632;SDS011;11483;55.828;37.488;2023-02-01T03:02:56;19.17;;;8.13;;
22632;SDS011;11483;55.828;37.488;2023-02-01T03:05:42;20.03;;;7.27;;
22632;SDS011;11483;55.828;37.488;2023-02-01T03:08:19;23.67;;;8.77;;
22632;SDS011;11483;55.828;37.488;2023-02-01T03:13:38;23.57;;;9.10;;
22632;SDS011;11483;55.828;37.488;2023-02-01T03:16:10;21.77;;;8.80;;
22632;SDS011;11483;55.828;37.488;2023-02-01T03:26:37;23.13;;;8.37;;
22632;SDS011;11483;55.828;37.488;2023-02-01T03:29:09;21.33;;;8.63;;
22632;SDS011;11483;55.828;37.488;2023-02-01T03:31:41;19.27;;;8.03;;
22632;SDS011;11483;55.828;37.488;2023-02-01T03:34:07;20.87;;;8.33;;
22632;SDS011;11483;55.828;37.488;2023-02-01T03:36:45;20.37;;;8.93;;
22632;SDS011;11483;55.828;37.488;2023-02-01T03:39:20;21.27;;;8.13;;
22632;SDS011;11483;55.828;37.488;2023-02-01T03:41:56;19.83;;;7.93;;
22632;SDS011;11483;55.828;37.488;2023-02-01T03:44:30;18.23;;;7.10;;
22632;SDS011;11483;55.828;37.488;2023-02-01T03:47:07;23.73;;;8.30;;
22632;SDS011;11483;55.828;37.488;2023-02-01T03:49:46;16.83;;;6.80;;
22632;SDS011;11483;55.828;37.488;2023-02-01T03:52:30;24.40;;;8.90;;
22632;SDS011;11483;55.828;37.488;2023-02-01T03:55:03;23.37;;;9.10;;
22632;SDS011;11483;55.828;37.488;2023-02-01T03:57:32;26.07;;;9.17;;
22632;SDS011;11483;55.828;37.488;2023-02-01T04:00:06;23.83;;;9.07;;
22632;SDS011;11483;55.828;37.488;2023-02-01T04:02:35;22.43;;;9.07;;
22632;SDS011;11483;55.828;37.488;2023-02-01T04:05:01;20.20;;;8.70;;
22632;SDS011;11483;55.828;37.488;2023-02-01T04:07:27;19.60;;;8.50;;
22632;SDS011;11483;55.828;37.488;2023-02-01T04:09:52;19.87;;;9.20;;
22632;SDS011;11483;55.828;37.488;2023-02-01T04:12:18;20.00;;;8.77;;
22632;SDS011;11483;55.828;37.488;2023-02-01T04:14:44;20.87;;;8.77;;
22632;SDS011;11483;55.828;37.488;2023-02-01T04:17:10;22.60;;;9.47;;
22632;SDS011;11483;55.828;37.488;2023-02-01T04:19:35;27.07;;;9.67;;
22632;SDS011;11483;55.828;37.488;2023-02-01T04:22:02;22.27;;;9.73;;
22632;SDS011;11483;55.828;37.488;2023-02-01T04:24:27;22.93;;;8.17;;
22632;SDS011;11483;55.828;37.488;2023-02-01T04:26:53;19.57;;;8.20;;
22632;SDS011;11483;55.828;37.488;2023-02-01T04:29:19;27.83;;;9.63;;
22632;SDS011;11483;55.828;37.488;2023-02-01T04:31:45;23.83;;;8.30;;
22632;SDS011;11483;55.828;37.488;2023-02-01T04:34:11;26.20;;;9.57;;
22632;SDS011;11483;55.828;37.488;2023-02-01T04:36:37;24.53;;;9.47;;
22632;SDS011;11483;55.828;37.488;2023-02-01T04:39:03;25.03;;;9.23;;
22632;SDS011;11483;55.828;37.488;2023-02-01T04:41:29;22.27;;;8.90;;
22632;SDS011;11483;55.828;37.488;2023-02-01T04:43:55;24.80;;;8.83;;
22632;SDS011;11483;55.828;37.488;2023-02-01T04:46:20;19.50;;;7.93;;
22632;SDS011;11483;55.828;37.488;2023-02-01T04:48:46;24.00;;;9.20;;
22632;SDS011;11483;55.828;37.488;2023-02-01T04:51:12;21.83;;;8.77;;
22632;SDS011;11483;55.828;37.488;2023-02-01T04:53:40;24.53;;;9.20;;
22632;SDS011;11483;55.828;37.488;2023-02-01T04:56:06;34.17;;;9.50;;
22632;SDS011;11483;55.828;37.488;2023-02-01T04:58:32;25.90;;;8.60;;
22632;SDS011;11483;55.828;37.488;2023-02-01T05:00:58;26.67;;;7.93;;
22632;SDS011;11483;55.828;37.488;2023-02-01T05:03:29;24.30;;;9.43;;
22632;SDS011;11483;55.828;37.488;2023-02-01T05:05:55;26.80;;;8.90;;
22632;SDS011;11483;55.828;37.488;2023-02-01T05:08:21;23.87;;;9.60;;
22632;SDS011;11483;55.828;37.488;2023-02-01T05:10:47;23.63;;;9.37;;
22632;SDS011;11483;55.828;37.488;2023-02-01T05:13:13;27.50;;;8.53;;
22632;SDS011;11483;55.828;37.488;2023-02-01T05:15:58;28.03;;;11.73;;
22632;SDS011;11483;55.828;37.488;2023-02-01T05:18:23;26.47;;;10.00;;
22632;SDS011;11483;55.828;37.488;2023-02-01T05:20:49;24.37;;;9.90;;
22632;SDS011;11483;55.828;37.488;2023-02-01T05:23:15;26.53;;;10.47;;
22632;SDS011;11483;55.828;37.488;2023-02-01T05:25:41;26.40;;;10.23;;
22632;SDS011;11483;55.828;37.488;2023-02-01T05:28:07;24.93;;;10.37;;
22632;SDS011;11483;55.828;37.488;2023-02-01T05:30:32;25.13;;;10.17;;
22632;SDS011;11483;55.828;37.488;2023-02-01T05:33:00;32.80;;;9.80;;
22632;SDS011;11483;55.828;37.488;2023-02-01T05:35:26;28.00;;;10.97;;
22632;SDS011;11483;55.828;37.488;2023-02-01T05:37:52;28.87;;;10.33;;
22632;SDS011;11483;55.828;37.488;2023-02-01T05:40:18;26.93;;;10.50;;
22632;SDS011;11483;55.828;37.488;2023-02-01T05:42:44;26.73;;;10.27;;
22632;SDS011;11483;55.828;37.488;2023-02-01T05:45:10;27.67;;;10.53;;
22632;SDS011;11483;55.828;37.488;2023-02-01T05:47:36;25.20;;;9.80;;
22632;SDS011;11483;55.828;37.488;2023-02-01T05:50:02;31.13;;;9.27;;
22632;SDS011;11483;55.828;37.488;2023-02-01T05:52:29;25.43;;;9.13;;
22632;SDS011;11483;55.828;37.488;2023-02-01T05:54:55;29.33;;;9.70;;
22632;SDS011;11483;55.828;37.488;2023-02-01T05:57:21;31.80;;;10.90;;
22632;SDS011;11483;55.828;37.488;2023-02-01T05:59:47;30.93;;;11.10;;
22632;SDS011;11483;55.828;37.488;2023-02-01T06:02:14;28.93;;;11.30;;
22632;SDS011;11483;55.828;37.488;2023-02-01T06:04:40;37.67;;;13.03;;
22632;SDS011;11483;55.828;37.488;2023-02-01T06:07:07;36.67;;;12.00;;
22632;SDS011;11483;55.828;37.488;2023-02-01T06:09:34;32.50;;;11.73;;
22632;SDS011;11483;55.828;37.488;2023-02-01T06:12:00;37.53;;;12.57;;
22632;SDS011;11483;55.828;37.488;2023-02-01T06:14:27;30.37;;;11.40;;
22632;SDS011;11483;55.828;37.488;2023-02-01T06:16:53;37.20;;;11.87;;
22632;SDS011;11483;55.828;37.488;2023-02-01T06:19:20;31.90;;;11.63;;
22632;SDS011;11483;55.828;37.488;2023-02-01T06:21:47;34.50;;;11.03;;
22632;SDS011;11483;55.828;37.488;2023-02-01T06:24:13;33.70;;;11.77;;
22632;SDS011;11483;55.828;37.488;2023-02-01T06:26:38;30.53;;;11.37;;
22632;SDS011;11483;55.828;37.488;2023-02-01T06:29:05;39.57;;;11.47;;
22632;SDS011;11483;55.828;37.488;2023-02-01T06:31:32;35.07;;;11.57;;
22632;SDS011;11483;55.828;37.488;2023-02-01T06:33:58;33.10;;;11.47;;
22632;SDS011;11483;55.828;37.488;2023-02-01T06:36:24;39.57;;;12.90;;
22632;SDS011;11483;55.828;37.488;2023-02-01T06:38:50;41.40;;;13.47;;
22632;SDS011;11483;55.828;37.488;2023-02-01T06:41:16;37.37;;;12.53;;
22632;SDS011;11483;55.828;37.488;2023-02-01T06:43:42;35.23;;;11.90;;
22632;SDS011;11483;55.828;37.488;2023-02-01T06:46:09;37.17;;;13.47;;
22632;SDS011;11483;55.828;37.488;2023-02-01T06:48:37;39.50;;;11.37;;
22632;SDS011;11483;55.828;37.488;2023-02-01T06:51:03;44.03;;;13.27;;
22632;SDS011;11483;55.828;37.488;2023-02-01T06:53:29;36.43;;;11.50;;
22632;SDS011;11483;55.828;37.488;2023-02-01T06:55:57;33.23;;;11.23;;
22632;SDS011;11483;55.828;37.488;2023-02-01T06:58:27;30.03;;;10.73;;
22632;SDS011;11483;55.828;37.488;2023-02-01T07:00:54;34.27;;;11.53;;
22632;SDS011;11483;55.828;37.488;2023-02-01T07:03:20;27.33;;;10.43;;
22632;SDS011;11483;55.828;37.488;2023-02-01T07:05:46;35.07;;;11.57;;
22632;SDS011;11483;55.828;37.488;2023-02-01T07:08:12;32.07;;;11.50;;
22632;SDS011;11483;55.828;37.488;2023-02-01T07:10:38;30.60;;;10.50;;
22632;SDS011;11483;55.828;37.488;2023-02-01T07:13:04;35.53;;;11.53;;
22632;SDS011;11483;55.828;37.488;2023-02-01T07:15:30;35.53;;;12.13;;
22632;SDS011;11483;55.828;37.488;2023-02-01T07:17:55;36.30;;;12.73;;
22632;SDS011;11483;55.828;37.488;2023-02-01T07:20:22;38.10;;;11.83;;
22632;SDS011;11483;55.828;37.488;2023-02-01T07:22:48;36.03;;;13.03;;
22632;SDS011;11483;55.828;37.488;2023-02-01T07:25:19;38.50;;;12.77;;
22632;SDS011;11483;55.828;37.488;2023-02-01T07:27:45;38.37;;;13.13;;
22632;SDS011;11483;55.828;37.488;2023-02-01T07:30:11;40.53;;;13.17;;
22632;SDS011;11483;55.828;37.488;2023-02-01T07:32:38;34.67;;;13.63;;
22632;SDS011;11483;55.828;37.488;2023-02-01T07:35:03;34.23;;;13.03;;
22632;SDS011;11483;55.828;37.488;2023-02-01T07:37:30;38.00;;;11.93;;
22632;SDS011;11483;55.828;37.488;2023-02-01T07:39:56;39.97;;;12.53;;
22632;SDS011;11483;55.828;37.488;2023-02-01T07:42:22;38.10;;;13.37;;
22632;SDS011;11483;55.828;37.488;2023-02-01T07:44:47;34.60;;;11.50;;
22632;SDS011;11483;55.828;37.488;2023-02-01T07:47:13;42.60;;;13.00;;
22632;SDS011;11483;55.828;37.488;2023-02-01T07:49:39;35.47;;;12.30;;
22632;SDS011;11483;55.828;37.488;2023-02-01T07:52:05;43.57;;;12.03;;
22632;SDS011;11483;55.828;37.488;2023-02-01T07:54:31;36.17;;;11.37;;
22632;SDS011;11483;55.828;37.488;2023-02-01T07:56:56;28.57;;;10.47;;
22632;SDS011;11483;55.828;37.488;2023-02-01T07:59:22;37.77;;;12.67;;
22632;SDS011;11483;55.828;37.488;2023-02-01T08:01:48;31.07;;;10.47;;
22632;SDS011;11483;55.828;37.488;2023-02-01T08:04:14;26.90;;;10.30;;
22632;SDS011;11483;55.828;37.488;2023-02-01T08:06:40;34.90;;;12.03;;
22632;SDS011;11483;55.828;37.488;2023-02-01T08:09:06;31.33;;;11.20;;
22632;SDS011;11483;55.828;37.488;2023-02-01T08:11:36;28.70;;;10.27;;
22632;SDS011;11483;55.828;37.488;2023-02-01T08:14:03;35.80;;;12.00;;
22632;SDS011;11483;55.828;37.488;2023-02-01T08:16:29;40.90;;;12.20;;
22632;SDS011;11483;55.828;37.488;2023-02-01T08:18:56;35.13;;;12.07;;
22632;SDS011;11483;55.828;37.488;2023-02-01T08:21:23;32.77;;;11.20;;
22632;SDS011;11483;55.828;37.488;2023-02-01T08:23:51;26.83;;;9.83;;
22632;SDS011;11483;55.828;37.488;2023-02-01T08:28:45;35.03;;;12.17;;
22632;SDS011;11483;55.828;37.488;2023-02-01T08:31:14;35.37;;;11.57;;
22632;SDS011;11483;55.828;37.488;2023-02-01T08:33:42;31.07;;;11.73;;
22632;SDS011;11483;55.828;37.488;2023-02-01T08:36:10;35.23;;;12.33;;
22632;SDS011;11483;55.828;37.488;2023-02-01T08:38:36;33.03;;;11.07;;
22632;SDS011;11483;55.828;37.488;2023-02-01T08:41:08;36.63;;;13.73;;
22632;SDS011;11483;55.828;37.488;2023-02-01T08:43:39;32.73;;;12.37;;
22632;SDS011;11483;55.828;37.488;2023-02-01T08:46:05;39.33;;;13.40;;
22632;SDS011;11483;55.828;37.488;2023-02-01T08:48:32;35.63;;;12.10;;
22632;SDS011;11483;55.828;37.488;2023-02-01T08:51:06;33.13;;;11.57;;
22632;SDS011;11483;55.828;37.488;2023-02-01T08:53:34;27.93;;;10.10;;
22632;SDS011;11483;55.828;37.488;2023-02-01T08:56:01;35.23;;;10.90;;
22632;SDS011;11483;55.828;37.488;2023-02-01T08:58:27;36.07;;;11.80;;
22632;SDS011;11483;55.828;37.488;2023-02-01T09:00:54;31.10;;;11.67;;
22632;SDS011;11483;55.828;37.488;2023-02-01T09:03:20;38.00;;;11.83;;
22632;SDS011;11483;55.828;37.488;2023-02-01T09:05:45;27.57;;;10.70;;
22632;SDS011;11483;55.828;37.488;2023-02-01T09:08:13;37.23;;;11.57;;
22632;SDS011;11483;55.828;37.488;2023-02-01T09:10:40;29.63;;;10.87;;
22632;SDS011;11483;55.828;37.488;2023-02-01T09:13:07;30.33;;;10.73;;
22632;SDS011;11483;55.828;37.488;2023-02-01T09:15:34;30.90;;;11.27;;
22632;SDS011;11483;55.828;37.488;2023-02-01T09:18:00;32.17;;;12.10;;
22632;SDS011;11483;55.828;37.488;2023-02-01T09:20:26;32.33;;;12.77;;
22632;SDS011;11483;55.828;37.488;2023-02-01T09:22:52;31.20;;;11.53;;
22632;SDS011;11483;55.828;37.488;2023-02-01T09:25:18;39.53;;;11.27;;
22632;SDS011;11483;55.828;37.488;2023-02-01T09:27:44;31.90;;;11.97;;
22632;SDS011;11483;55.828;37.488;2023-02-01T09:30:10;32.87;;;12.17;;
22632;SDS011;11483;55.828;37.488;2023-02-01T09:32:36;27.60;;;10.27;;
22632;SDS011;11483;55.828;37.488;2023-02-01T09:35:02;28.47;;;11.30;;
22632;SDS011;11483;55.828;37.488;2023-02-01T09:37:28;32.73;;;10.53;;
22632;SDS011;11483;55.828;37.488;2023-02-01T09:39:54;34.03;;;12.85;;
22632;SDS011;11483;55.828;37.488;2023-02-01T09:42:27;30.40;;;11.37;;
22632;SDS011;11483;55.828;37.488;2023-02-01T09:55:50;30.10;;;11.43;;
22632;SDS011;11483;55.828;37.488;2023-02-01T09:58:20;26.47;;;10.27;;
22632;SDS011;11483;55.828;37.488;2023-02-01T10:00:55;31.93;;;11.70;;
22632;SDS011;11483;55.828;37.488;2023-02-01T10:03:24;26.23;;;10.80;;
22632;SDS011;11483;55.828;37.488;2023-02-01T10:08:42;34.07;;;11.30;;
22632;SDS011;11483;55.828;37.488;2023-02-01T10:11:36;27.33;;;10.47;;
22632;SDS011;11483;55.828;37.488;2023-02-01T10:27:43;28.47;;;10.63;;
22632;SDS011;11483;55.828;37.488;2023-02-01T10:32:39;26.37;;;9.67;;
22632;SDS011;11483;55.828;37.488;2023-02-01T10:37:40;26.10;;;10.43;;
22632;SDS011;11483;55.828;37.488;2023-02-01T10:40:15;29.23;;;10.20;;
22632;SDS011;11483;55.828;37.488;2023-02-01T10:42:47;24.20;;;9.83;;
22632;SDS011;11483;55.828;37.488;2023-02-01T10:45:17;24.43;;;10.00;;
22632;SDS011;11483;55.828;37.488;2023-02-01T10:47:49;27.23;;;11.37;;
22632;SDS011;11483;55.828;37.488;2023-02-01T10:50:19;29.50;;;10.63;;
22632;SDS011;11483;55.828;37.488;2023-02-01T10:52:57;24.63;;;9.80;;
22632;SDS011;11483;55.828;37.488;2023-02-01T10:58:02;25.27;;;10.80;;
22632;SDS011;11483;55.828;37.488;2023-02-01T11:00:39;30.93;;;10.37;;
22632;SDS011;11483;55.828;37.488;2023-02-01T11:03:22;26.63;;;11.07;;
22632;SDS011;11483;55.828;37.488;2023-02-01T11:05:53;29.27;;;10.80;;
22632;SDS011;11483;55.828;37.488;2023-02-01T11:08:21;27.77;;;10.50;;
22632;SDS011;11483;55.828;37.488;2023-02-01T11:10:49;27.17;;;10.53;;
22632;SDS011;11483;55.828;37.488;2023-02-01T11:13:33;29.17;;;10.93;;
22632;SDS011;11483;55.828;37.488;2023-02-01T11:16:04;31.17;;;10.97;;
22632;SDS011;11483;55.828;37.488;2023-02-01T11:18:33;32.37;;;11.40;;
22632;SDS011;11483;55.828;37.488;2023-02-01T11:21:02;34.10;;;12.27;;
22632;SDS011;11483;55.828;37.488;2023-02-01T11:23:30;33.00;;;12.43;;
22632;SDS011;11483;55.828;37.488;2023-02-01T11:26:07;34.63;;;11.83;;
22632;SDS011;11483;55.828;37.488;2023-02-01T11:28:39;32.30;;;11.40;;
22632;SDS011;11483;55.828;37.488;2023-02-01T11:31:15;30.33;;;11.00;;
22632;SDS011;11483;55.828;37.488;2023-02-01T11:33:46;33.37;;;11.33;;
22632;SDS011;11483;55.828;37.488;2023-02-01T11:36:36;29.57;;;11.23;;
22632;SDS011;11483;55.828;37.488;2023-02-01T11:41:42;36.43;;;13.73;;
22632;SDS011;11483;55.828;37.488;2023-02-01T11:44:40;43.57;;;13.40;;
22632;SDS011;11483;55.828;37.488;2023-02-01T11:47:29;28.87;;;12.43;;
22632;SDS011;11483;55.828;37.488;2023-02-01T11:50:05;32.40;;;13.50;;
22632;SDS011;11483;55.828;37.488;2023-02-01T11:55:46;38.93;;;13.57;;
22632;SDS011;11483;55.828;37.488;2023-02-01T12:04:01;32.30;;;11.63;;
22632;SDS011;11483;55.828;37.488;2023-02-01T12:06:54;32.33;;;12.67;;
22632;SDS011;11483;55.828;37.488;2023-02-01T12:12:38;33.70;;;13.10;;
22632;SDS011;11483;55.828;37.488;2023-02-01T12:21:51;29.40;;;11.00;;
22632;SDS011;11483;55.828;37.488;2023-02-01T12:35:22;35.70;;;12.60;;
22632;SDS011;11483;55.828;37.488;2023-02-01T12:46:16;38.97;;;12.63;;
22632;SDS011;11483;55.828;37.488;2023-02-01T12:49:05;31.80;;;12.00;;
22632;SDS011;11483;55.828;37.488;2023-02-01T12:51:35;29.20;;;11.63;;
22632;SDS011;11483;55.828;37.488;2023-02-01T12:56:52;30.73;;;11.60;;
22632;SDS011;11483;55.828;37.488;2023-02-01T12:59:25;28.73;;;10.73;;
22632;SDS011;11483;55.828;37.488;2023-02-01T13:02:11;27.77;;;10.30;;
22632;SDS011;11483;55.828;37.488;2023-02-01T13:04:54;27.10;;;10.37;;
22632;SDS011;11483;55.828;37.488;2023-02-01T13:10:38;30.80;;;10.60;;
22632;SDS011;11483;55.828;37.488;2023-02-01T13:13:29;26.67;;;11.20;;
22632;SDS011;11483;55.828;37.488;2023-02-01T13:16:18;26.63;;;11.53;;
22632;SDS011;11483;55.828;37.488;2023-02-01T13:18:53;30.63;;;10.67;;
22632;SDS011;11483;55.828;37.488;2023-02-01T13:21:40;25.57;;;8.93;;
22632;SDS011;11483;55.828;37.488;2023-02-01T13:26:52;22.20;;;8.73;;
22632;SDS011;11483;55.828;37.488;2023-02-01T13:29:20;21.43;;;9.70;;
22632;SDS011;11483;55.828;37.488;2023-02-01T13:37:13;22.43;;;8.57;;
22632;SDS011;11483;55.828;37.488;2023-02-01T13:42:54;28.27;;;8.53;;
22632;SDS011;11483;55.828;37.488;2023-02-01T13:45:30;26.07;;;9.27;;
22632;SDS011;11483;55.828;37.488;2023-02-01T13:48:01;22.67;;;8.50;;
22632;SDS011;11483;55.828;37.488;2023-02-01T13:50:32;27.13;;;9.10;;
22632;SDS011;11483;55.828;37.488;2023-02-01T13:55:41;24.97;;;9.13;;
22632;SDS011;11483;55.828;37.488;2023-02-01T13:58:17;26.03;;;10.00;;
22632;SDS011;11483;55.828;37.488;2023-02-01T14:00:48;18.13;;;7.23;;
22632;SDS011;11483;55.828;37.488;2023-02-01T14:03:19;25.43;;;8.70;;
22632;SDS011;11483;55.828;37.488;2023-02-01T14:08:13;20.07;;;8.30;;
22632;SDS011;11483;55.828;37.488;2023-02-01T14:10:46;16.63;;;7.07;;
22632;SDS011;11483;55.828;37.488;2023-02-01T14:13:25;29.07;;;8.20;;
22632;SDS011;11483;55.828;37.488;2023-02-01T14:21:33;20.07;;;8.87;;
22632;SDS011;11483;55.828;37.488;2023-02-01T14:29:19;22.70;;;8.03;;
22632;SDS011;11483;55.828;37.488;2023-02-01T14:39:50;21.73;;;7.63;;
22632;SDS011;11483;55.828;37.488;2023-02-01T14:42:22;22.13;;;8.00;;
22632;SDS011;11483;55.828;37.488;2023-02-01T14:44:53;20.43;;;6.70;;
22632;SDS011;11483;55.828;37.488;2023-02-01T14:47:37;18.50;;;7.63;;
22632;SDS011;11483;55.828;37.488;2023-02-01T14:52:36;19.20;;;6.90;;
22632;SDS011;11483;55.828;37.488;2023-02-01T14:55:18;20.10;;;7.77;;
22632;SDS011;11483;55.828;37.488;2023-02-01T14:57:53;25.00;;;8.87;;
22632;SDS011;11483;55.828;37.488;2023-02-01T15:00:23;22.90;;;8.20;;
22632;SDS011;11483;55.828;37.488;2023-02-01T15:02:52;18.23;;;7.70;;
22632;SDS011;11483;55.828;37.488;2023-02-01T15:05:22;16.97;;;6.97;;
22632;SDS011;11483;55.828;37.488;2023-02-01T15:07:48;17.87;;;7.23;;
22632;SDS011;11483;55.828;37.488;2023-02-01T15:10:14;18.87;;;7.10;;
22632;SDS011;11483;55.828;37.488;2023-02-01T15:12:41;22.03;;;8.53;;
22632;SDS011;11483;55.828;37.488;2023-02-01T15:15:13;19.10;;;7.80;;
22632;SDS011;11483;55.828;37.488;2023-02-01T15:17:40;40.27;;;16.27;;
22632;SDS011;11483;55.828;37.488;2023-02-01T15:22:42;20.00;;;7.37;;
22632;SDS011;11483;55.828;37.488;2023-02-01T15:25:45;26.83;;;8.83;;
22632;SDS011;11483;55.828;37.488;2023-02-01T15:28:14;27.47;;;9.93;;
22632;SDS011;11483;55.828;37.488;2023-02-01T15:30:51;19.67;;;7.93;;
22632;SDS011;11483;55.828;37.488;2023-02-01T15:33:18;21.77;;;9.00;;
22632;SDS011;11483;55.828;37.488;2023-02-01T15:35:45;20.60;;;8.03;;
22632;SDS011;11483;55.828;37.488;2023-02-01T15:40:56;25.07;;;8.87;;
22632;SDS011;11483;55.828;37.488;2023-02-01T15:43:27;21.57;;;7.77;;
22632;SDS011;11483;55.828;37.488;2023-02-01T15:45:56;20.97;;;7.60;;
22632;SDS011;11483;55.828;37.488;2023-02-01T15:48:24;21.67;;;8.53;;
22632;SDS011;11483;55.828;37.488;2023-02-01T15:50:52;24.00;;;8.17;;
22632;SDS011;11483;55.828;37.488;2023-02-01T15:53:21;17.23;;;7.10;;
22632;SDS011;11483;55.828;37.488;2023-02-01T15:55:54;19.67;;;7.10;;
22632;SDS011;11483;55.828;37.488;2023-02-01T15:58:22;23.10;;;8.83;;
22632;SDS011;11483;55.828;37.488;2023-02-01T16:00:51;25.17;;;7.97;;
22632;SDS011;11483;55.828;37.488;2023-02-01T16:03:26;43.67;;;15.87;;
22632;SDS011;11483;55.828;37.488;2023-02-01T16:06:00;21.83;;;8.83;;
22632;SDS011;11483;55.828;37.488;2023-02-01T16:08:28;22.37;;;8.77;;
22632;SDS011;11483;55.828;37.488;2023-02-01T16:11:01;22.00;;;8.30;;
22632;SDS011;11483;55.828;37.488;2023-02-01T16:13:39;19.77;;;7.37;;
22632;SDS011;11483;55.828;37.488;2023-02-01T16:16:07;19.67;;;7.73;;
22632;SDS011;11483;55.828;37.488;2023-02-01T16:18:39;24.07;;;8.47;;
22632;SDS011;11483;55.828;37.488;2023-02-01T16:21:06;23.87;;;9.17;;
22632;SDS011;11483;55.828;37.488;2023-02-01T16:23:35;21.77;;;7.83;;
22632;SDS011;11483;55.828;37.488;2023-02-01T16:26:02;15.20;;;6.93;;
22632;SDS011;11483;55.828;37.488;2023-02-01T16:28:31;24.77;;;8.77;;
22632;SDS011;11483;55.828;37.488;2023-02-01T16:30:58;22.60;;;8.67;;
22632;SDS011;11483;55.828;37.488;2023-02-01T16:33:25;20.97;;;8.00;;
22632;SDS011;11483;55.828;37.488;2023-02-01T16:35:51;28.30;;;10.43;;
22632;SDS011;11483;55.828;37.488;2023-02-01T16:38:20;24.30;;;9.03;;
22632;SDS011;11483;55.828;37.488;2023-02-01T16:40:48;23.77;;;8.03;;
22632;SDS011;11483;55.828;37.488;2023-02-01T16:43:19;21.30;;;7.87;;
22632;SDS011;11483;55.828;37.488;2023-02-01T16:45:47;18.07;;;7.60;;
22632;SDS011;11483;55.828;37.488;2023-02-01T16:48:16;25.70;;;9.33;;
22632;SDS011;11483;55.828;37.488;2023-02-01T16:50:43;21.23;;;8.90;;
22632;SDS011;11483;55.828;37.488;2023-02-01T16:53:12;24.97;;;9.70;;
22632;SDS011;11483;55.828;37.488;2023-02-01T16:55:41;24.57;;;7.77;;
22632;SDS011;11483;55.828;37.488;2023-02-01T16:58:08;22.10;;;8.33;;
22632;SDS011;11483;55.828;37.488;2023-02-01T17:00:35;25.23;;;9.07;;
22632;SDS011;11483;55.828;37.488;2023-02-01T17:03:04;24.83;;;8.97;;
22632;SDS011;11483;55.828;37.488;2023-02-01T17:05:33;21.47;;;9.07;;
22632;SDS011;11483;55.828;37.488;2023-02-01T17:08:02;22.67;;;9.23;;
22632;SDS011;11483;55.828;37.488;2023-02-01T17:10:31;25.43;;;8.80;;
22632;SDS011;11483;55.828;37.488;2023-02-01T17:12:57;22.00;;;8.87;;
22632;SDS011;11483;55.828;37.488;2023-02-01T17:15:23;21.90;;;8.03;;
22632;SDS011;11483;55.828;37.488;2023-02-01T17:17:52;19.20;;;8.03;;